sensor_id;sensor_type;location;lat;lon;timestamp;temperature;humidity
18131;DHT22;9191;54.324;10.126;2023-02-22T00:01:08;7.60;99.90
18131;DHT22;9191;54.324;10.126;2023-02-22T00:03:47;7.80;99.90
18131;DHT22;9191;54.324;10.126;2023-02-22T00:06:16;7.80;99.90
18131;DHT22;9191;54.324;10.126;2023-02-22T00:08:47;7.70;99.90
18131;DHT22;9191;54.324;10.126;2023-02-22T00:11:19;7.80;99.90
18131;DHT22;9191;54.324;10.126;2023-02-22T00:13:47;7.80;99.90
18131;DHT22;9191;54.324;10.126;2023-02-22T00:16:19;7.80;99.90
18131;DHT22;9191;54.324;10.126;2023-02-22T00:18:46;7.80;99.90
18131;DHT22;9191;54.324;10.126;2023-02-22T00:21:14;7.80;99.90
18131;DHT22;9191;54.324;10.126;2023-02-22T00:23:42;7.90;99.90
18131;DHT22;9191;54.324;10.126;2023-02-22T00:26:14;8.00;99.90
18131;DHT22;9191;54.324;10.126;2023-02-22T00:28:43;7.90;99.90
18131;DHT22;9191;54.324;10.126;2023-02-22T00:31:10;7.90;99.90
18131;DHT22;9191;54.324;10.126;2023-02-22T00:33:39;7.90;99.90
18131;DHT22;9191;54.324;10.126;2023-02-22T00:36:08;7.90;99.90
18131;DHT22;9191;54.324;10.126;2023-02-22T00:38:35;7.90;99.90
18131;DHT22;9191;54.324;10.126;2023-02-22T00:41:02;7.90;99.90
18131;DHT22;9191;54.324;10.126;2023-02-22T00:43:30;7.90;99.90
18131;DHT22;9191;54.324;10.126;2023-02-22T00:45:57;7.90;99.90
18131;DHT22;9191;54.324;10.126;2023-02-22T00:48:24;7.90;99.90
18131;DHT22;9191;54.324;10.126;2023-02-22T00:50:51;8.00;99.90
18131;DHT22;9191;54.324;10.126;2023-02-22T00:53:21;8.00;99.90
18131;DHT22;9191;54.324;10.126;2023-02-22T00:55:48;8.00;99.90
18131;DHT22;9191;54.324;10.126;2023-02-22T00:58:15;8.00;99.90
18131;DHT22;9191;54.324;10.126;2023-02-22T01:00:45;7.80;99.90
18131;DHT22;9191;54.324;10.126;2023-02-22T01:03:13;7.70;99.90
18131;DHT22;9191;54.324;10.126;2023-02-22T01:05:41;7.80;99.90
18131;DHT22;9191;54.324;10.126;2023-02-22T01:08:08;7.80;99.90
18131;DHT22;9191;54.324;10.126;2023-02-22T01:10:36;7.80;99.90
18131;DHT22;9191;54.324;10.126;2023-02-22T01:13:04;7.70;99.90
18131;DHT22;9191;54.324;10.126;2023-02-22T01:15:34;7.60;99.90
18131;DHT22;9191;54.324;10.126;2023-02-22T01:18:02;7.70;99.90
18131;DHT22;9191;54.324;10.126;2023-02-22T01:20:30;7.60;99.90
18131;DHT22;9191;54.324;10.126;2023-02-22T01:22:58;7.60;99.90
18131;DHT22;9191;54.324;10.126;2023-02-22T01:25:29;7.50;99.90
18131;DHT22;9191;54.324;10.126;2023-02-22T01:27:57;7.50;99.90
18131;DHT22;9191;54.324;10.126;2023-02-22T01:30:28;7.50;99.90
18131;DHT22;9191;54.324;10.126;2023-02-22T01:32:57;7.60;99.90
18131;DHT22;9191;54.324;10.126;2023-02-22T01:35:27;7.60;99.90
18131;DHT22;9191;54.324;10.126;2023-02-22T01:37:54;7.60;99.90
18131;DHT22;9191;54.324;10.126;2023-02-22T01:40:24;7.60;99.90
18131;DHT22;9191;54.324;10.126;2023-02-22T01:42:52;7.60;99.90
18131;DHT22;9191;54.324;10.126;2023-02-22T01:45:42;7.50;99.90
18131;DHT22;9191;54.324;10.126;2023-02-22T01:48:13;7.50;99.90
18131;DHT22;9191;54.324;10.126;2023-02-22T01:50:45;7.60;99.90
18131;DHT22;9191;54.324;10.126;2023-02-22T01:53:13;7.60;99.90
18131;DHT22;9191;54.324;10.126;2023-02-22T01:55:43;7.70;99.90
18131;DHT22;9191;54.324;10.126;2023-02-22T01:58:11;7.70;99.90
18131;DHT22;9191;54.324;10.126;2023-02-22T02:00:39;7.80;99.90
18131;DHT22;9191;54.324;10.126;2023-02-22T02:03:07;7.80;99.90
18131;DHT22;9191;54.324;10.126;2023-02-22T02:05:36;7.80;99.90
18131;DHT22;9191;54.324;10.126;2023-02-22T02:08:12;7.70;99.90
18131;DHT22;9191;54.324;10.126;2023-02-22T02:10:41;7.80;99.90
18131;DHT22;9191;54.324;10.126;2023-02-22T02:13:09;7.80;99.90
18131;DHT22;9191;54.324;10.126;2023-02-22T02:15:36;7.80;99.90
18131;DHT22;9191;54.324;10.126;2023-02-22T02:18:04;7.80;99.90
18131;DHT22;9191;54.324;10.126;2023-02-22T02:20:32;7.80;99.90
18131;DHT22;9191;54.324;10.126;2023-02-22T02:23:09;7.90;99.90
18131;DHT22;9191;54.324;10.126;2023-02-22T02:25:57;8.00;99.90
18131;DHT22;9191;54.324;10.126;2023-02-22T02:28:41;8.10;99.90
18131;DHT22;9191;54.324;10.126;2023-02-22T02:31:25;8.00;99.90
18131;DHT22;9191;54.324;10.126;2023-02-22T02:34:01;8.00;99.90
18131;DHT22;9191;54.324;10.126;2023-02-22T02:36:30;8.10;99.90
18131;DHT22;9191;54.324;10.126;2023-02-22T02:39:11;8.00;99.90
18131;DHT22;9191;54.324;10.126;2023-02-22T02:41:47;8.10;99.90
18131;DHT22;9191;54.324;10.126;2023-02-22T02:44:15;8.00;99.90
18131;DHT22;9191;54.324;10.126;2023-02-22T02:46:47;8.10;99.90
18131;DHT22;9191;54.324;10.126;2023-02-22T02:49:21;8.00;99.90
18131;DHT22;9191;54.324;10.126;2023-02-22T02:51:52;8.00;99.90
18131;DHT22;9191;54.324;10.126;2023-02-22T02:54:20;7.90;99.90
18131;DHT22;9191;54.324;10.126;2023-02-22T02:56:47;7.90;99.90
18131;DHT22;9191;54.324;10.126;2023-02-22T02:59:25;7.90;99.90
18131;DHT22;9191;54.324;10.126;2023-02-22T03:02:01;7.90;99.90
18131;DHT22;9191;54.324;10.126;2023-02-22T03:04:50;8.00;99.90
18131;DHT22;9191;54.324;10.126;2023-02-22T03:07:30;7.90;99.90
18131;DHT22;9191;54.324;10.126;2023-02-22T03:10:07;8.00;99.90
18131;DHT22;9191;54.324;10.126;2023-02-22T03:12:43;8.00;99.90
18131;DHT22;9191;54.324;10.126;2023-02-22T03:15:12;8.00;99.90
18131;DHT22;9191;54.324;10.126;2023-02-22T03:17:52;8.00;99.90
18131;DHT22;9191;54.324;10.126;2023-02-22T03:20:27;8.00;99.90
18131;DHT22;9191;54.324;10.126;2023-02-22T03:23:00;8.00;99.90
18131;DHT22;9191;54.324;10.126;2023-02-22T03:25:29;8.00;99.90
18131;DHT22;9191;54.324;10.126;2023-02-22T03:28:02;8.10;99.90
18131;DHT22;9191;54.324;10.126;2023-02-22T03:30:30;8.00;99.90
18131;DHT22;9191;54.324;10.126;2023-02-22T03:33:03;8.10;99.90
18131;DHT22;9191;54.324;10.126;2023-02-22T03:35:37;8.10;99.90
18131;DHT22;9191;54.324;10.126;2023-02-22T03:38:09;8.10;99.90
18131;DHT22;9191;54.324;10.126;2023-02-22T03:40:41;8.00;99.90
18131;DHT22;9191;54.324;10.126;2023-02-22T03:43:13;7.90;99.90
18131;DHT22;9191;54.324;10.126;2023-02-22T03:45:41;7.90;99.90
18131;DHT22;9191;54.324;10.126;2023-02-22T03:48:10;8.00;99.90
18131;DHT22;9191;54.324;10.126;2023-02-22T03:50:41;8.00;99.90
18131;DHT22;9191;54.324;10.126;2023-02-22T03:53:08;7.90;99.90
18131;DHT22;9191;54.324;10.126;2023-02-22T03:55:35;7.90;99.90
18131;DHT22;9191;54.324;10.126;2023-02-22T03:58:03;8.00;99.90
18131;DHT22;9191;54.324;10.126;2023-02-22T04:00:36;8.10;99.90
18131;DHT22;9191;54.324;10.126;2023-02-22T04:03:03;7.90;99.90
18131;DHT22;9191;54.324;10.126;2023-02-22T04:05:29;7.90;99.90
18131;DHT22;9191;54.324;10.126;2023-02-22T04:07:58;7.80;99.90
18131;DHT22;9191;54.324;10.126;2023-02-22T04:10:25;7.80;99.90
18131;DHT22;9191;54.324;10.126;2023-02-22T04:12:52;7.70;99.90
18131;DHT22;9191;54.324;10.126;2023-02-22T04:15:20;7.70;99.90
18131;DHT22;9191;54.324;10.126;2023-02-22T04:17:47;7.80;99.90
18131;DHT22;9191;54.324;10.126;2023-02-22T04:20:14;7.70;99.90
18131;DHT22;9191;54.324;10.126;2023-02-22T04:22:44;7.80;99.90
18131;DHT22;9191;54.324;10.126;2023-02-22T04:25:12;7.70;99.90
18131;DHT22;9191;54.324;10.126;2023-02-22T04:27:39;7.80;99.90
18131;DHT22;9191;54.324;10.126;2023-02-22T04:30:06;7.90;99.90
18131;DHT22;9191;54.324;10.126;2023-02-22T04:32:33;7.80;99.90
18131;DHT22;9191;54.324;10.126;2023-02-22T04:34:59;7.80;99.90
18131;DHT22;9191;54.324;10.126;2023-02-22T04:37:26;7.90;99.90
18131;DHT22;9191;54.324;10.126;2023-02-22T04:39:53;8.00;99.90
18131;DHT22;9191;54.324;10.126;2023-02-22T04:42:21;8.10;99.90
18131;DHT22;9191;54.324;10.126;2023-02-22T04:44:50;8.00;99.90
18131;DHT22;9191;54.324;10.126;2023-02-22T04:47:16;8.00;99.90
18131;DHT22;9191;54.324;10.126;2023-02-22T04:49:43;8.00;99.90
18131;DHT22;9191;54.324;10.126;2023-02-22T04:52:10;7.90;99.90
18131;DHT22;9191;54.324;10.126;2023-02-22T04:54:36;8.00;99.90
18131;DHT22;9191;54.324;10.126;2023-02-22T04:57:03;8.00;99.90
18131;DHT22;9191;54.324;10.126;2023-02-22T04:59:31;8.00;99.90
18131;DHT22;9191;54.324;10.126;2023-02-22T05:01:58;8.00;99.90
18131;DHT22;9191;54.324;10.126;2023-02-22T05:04:26;7.90;99.90
18131;DHT22;9191;54.324;10.126;2023-02-22T05:06:52;7.90;99.90
18131;DHT22;9191;54.324;10.126;2023-02-22T05:09:19;7.80;99.90
18131;DHT22;9191;54.324;10.126;2023-02-22T05:11:46;7.80;99.90
18131;DHT22;9191;54.324;10.126;2023-02-22T05:14:13;7.80;99.90
18131;DHT22;9191;54.324;10.126;2023-02-22T05:16:41;7.80;99.90
18131;DHT22;9191;54.324;10.126;2023-02-22T05:19:08;7.80;99.90
18131;DHT22;9191;54.324;10.126;2023-02-22T05:21:35;7.80;99.90
18131;DHT22;9191;54.324;10.126;2023-02-22T05:24:02;7.70;99.90
18131;DHT22;9191;54.324;10.126;2023-02-22T05:26:29;7.70;99.90
18131;DHT22;9191;54.324;10.126;2023-02-22T05:28:56;7.80;99.90
18131;DHT22;9191;54.324;10.126;2023-02-22T05:31:22;7.70;99.90
18131;DHT22;9191;54.324;10.126;2023-02-22T05:33:50;7.60;99.90
18131;DHT22;9191;54.324;10.126;2023-02-22T05:36:17;7.60;99.90
18131;DHT22;9191;54.324;10.126;2023-02-22T05:38:44;7.70;99.90
18131;DHT22;9191;54.324;10.126;2023-02-22T05:41:11;7.70;99.90
18131;DHT22;9191;54.324;10.126;2023-02-22T05:43:38;7.60;99.90
18131;DHT22;9191;54.324;10.126;2023-02-22T05:46:05;7.60;99.90
18131;DHT22;9191;54.324;10.126;2023-02-22T05:48:33;7.60;99.90
18131;DHT22;9191;54.324;10.126;2023-02-22T05:51:01;7.50;99.90
18131;DHT22;9191;54.324;10.126;2023-02-22T05:53:28;7.50;99.90
18131;DHT22;9191;54.324;10.126;2023-02-22T05:55:54;7.50;99.90
18131;DHT22;9191;54.324;10.126;2023-02-22T05:58:21;7.40;99.90
18131;DHT22;9191;54.324;10.126;2023-02-22T06:00:48;7.40;99.90
18131;DHT22;9191;54.324;10.126;2023-02-22T06:03:14;7.40;99.90
18131;DHT22;9191;54.324;10.126;2023-02-22T06:05:44;7.40;99.90
18131;DHT22;9191;54.324;10.126;2023-02-22T06:08:12;7.30;99.90
18131;DHT22;9191;54.324;10.126;2023-02-22T06:10:39;7.40;99.90
18131;DHT22;9191;54.324;10.126;2023-02-22T06:13:06;7.40;99.90
18131;DHT22;9191;54.324;10.126;2023-02-22T06:15:32;7.40;99.90
18131;DHT22;9191;54.324;10.126;2023-02-22T06:17:59;7.50;99.90
18131;DHT22;9191;54.324;10.126;2023-02-22T06:20:26;7.60;99.90
18131;DHT22;9191;54.324;10.126;2023-02-22T06:22:54;7.50;99.90
18131;DHT22;9191;54.324;10.126;2023-02-22T06:25:24;7.60;99.90
18131;DHT22;9191;54.324;10.126;2023-02-22T06:27:50;7.50;99.90
18131;DHT22;9191;54.324;10.126;2023-02-22T06:30:20;7.50;99.90
18131;DHT22;9191;54.324;10.126;2023-02-22T06:32:47;7.50;99.90
18131;DHT22;9191;54.324;10.126;2023-02-22T06:35:14;7.50;99.90
18131;DHT22;9191;54.324;10.126;2023-02-22T06:37:41;7.60;99.90
18131;DHT22;9191;54.324;10.126;2023-02-22T06:40:09;7.60;99.90
18131;DHT22;9191;54.324;10.126;2023-02-22T06:42:38;7.60;99.90
18131;DHT22;9191;54.324;10.126;2023-02-22T06:45:04;7.60;99.90
18131;DHT22;9191;54.324;10.126;2023-02-22T06:47:31;7.70;99.90
18131;DHT22;9191;54.324;10.126;2023-02-22T06:49:58;7.70;99.90
18131;DHT22;9191;54.324;10.126;2023-02-22T06:52:25;7.80;99.90
18131;DHT22;9191;54.324;10.126;2023-02-22T06:54:52;7.80;99.90
18131;DHT22;9191;54.324;10.126;2023-02-22T06:57:19;7.80;99.90
18131;DHT22;9191;54.324;10.126;2023-02-22T06:59:47;7.80;99.90
18131;DHT22;9191;54.324;10.126;2023-02-22T07:02:13;7.90;99.90
18131;DHT22;9191;54.324;10.126;2023-02-22T07:04:40;7.90;99.90
18131;DHT22;9191;54.324;10.126;2023-02-22T07:07:07;8.00;99.90
18131;DHT22;9191;54.324;10.126;2023-02-22T07:09:34;8.00;99.90
18131;DHT22;9191;54.324;10.126;2023-02-22T07:12:00;8.00;99.90
18131;DHT22;9191;54.324;10.126;2023-02-22T07:14:27;8.00;99.90
18131;DHT22;9191;54.324;10.126;2023-02-22T07:16:55;8.10;99.90
18131;DHT22;9191;54.324;10.126;2023-02-22T07:19:22;8.10;99.90
18131;DHT22;9191;54.324;10.126;2023-02-22T07:21:49;8.10;99.90
18131;DHT22;9191;54.324;10.126;2023-02-22T07:24:19;8.10;99.90
18131;DHT22;9191;54.324;10.126;2023-02-22T07:26:46;8.20;99.90
18131;DHT22;9191;54.324;10.126;2023-02-22T07:29:12;8.10;99.90
18131;DHT22;9191;54.324;10.126;2023-02-22T07:31:39;8.10;99.90
18131;DHT22;9191;54.324;10.126;2023-02-22T07:34:07;8.10;99.90
18131;DHT22;9191;54.324;10.126;2023-02-22T07:36:34;8.10;99.90
18131;DHT22;9191;54.324;10.126;2023-02-22T07:39:01;8.20;99.90
18131;DHT22;9191;54.324;10.126;2023-02-22T07:41:28;8.20;99.90
18131;DHT22;9191;54.324;10.126;2023-02-22T07:43:54;8.30;99.90
18131;DHT22;9191;54.324;10.126;2023-02-22T07:46:21;8.20;99.90
18131;DHT22;9191;54.324;10.126;2023-02-22T07:48:48;8.20;99.90
18131;DHT22;9191;54.324;10.126;2023-02-22T07:51:16;8.20;99.90
18131;DHT22;9191;54.324;10.126;2023-02-22T07:53:45;8.30;99.90
18131;DHT22;9191;54.324;10.126;2023-02-22T07:56:11;8.30;99.90
18131;DHT22;9191;54.324;10.126;2023-02-22T07:58:38;8.30;99.90
18131;DHT22;9191;54.324;10.126;2023-02-22T08:01:05;8.20;99.90
18131;DHT22;9191;54.324;10.126;2023-02-22T08:03:33;8.30;99.90
18131;DHT22;9191;54.324;10.126;2023-02-22T08:06:00;8.30;99.90
18131;DHT22;9191;54.324;10.126;2023-02-22T08:08:29;8.30;99.90
18131;DHT22;9191;54.324;10.126;2023-02-22T08:10:56;8.30;99.90
18131;DHT22;9191;54.324;10.126;2023-02-22T08:13:23;8.40;99.90
18131;DHT22;9191;54.324;10.126;2023-02-22T08:15:50;8.30;99.90
18131;DHT22;9191;54.324;10.126;2023-02-22T08:18:18;8.30;99.90
18131;DHT22;9191;54.324;10.126;2023-02-22T08:20:45;8.30;99.90
18131;DHT22;9191;54.324;10.126;2023-02-22T08:23:13;8.30;99.90
18131;DHT22;9191;54.324;10.126;2023-02-22T08:25:42;8.30;99.90
18131;DHT22;9191;54.324;10.126;2023-02-22T08:28:09;8.30;99.90
18131;DHT22;9191;54.324;10.126;2023-02-22T08:30:36;8.30;99.90
18131;DHT22;9191;54.324;10.126;2023-02-22T08:33:04;8.30;99.90
18131;DHT22;9191;54.324;10.126;2023-02-22T08:35:31;8.30;99.90
18131;DHT22;9191;54.324;10.126;2023-02-22T08:37:59;8.30;99.90
18131;DHT22;9191;54.324;10.126;2023-02-22T08:40:27;8.20;99.90
18131;DHT22;9191;54.324;10.126;2023-02-22T08:42:57;8.30;99.90
18131;DHT22;9191;54.324;10.126;2023-02-22T08:45:23;8.40;99.90
18131;DHT22;9191;54.324;10.126;2023-02-22T08:47:50;8.40;99.90
18131;DHT22;9191;54.324;10.126;2023-02-22T08:50:22;8.40;99.90
18131;DHT22;9191;54.324;10.126;2023-02-22T08:52:49;8.40;99.90
18131;DHT22;9191;54.324;10.126;2023-02-22T08:55:18;8.50;99.90
18131;DHT22;9191;54.324;10.126;2023-02-22T08:57:44;8.60;99.90
18131;DHT22;9191;54.324;10.126;2023-02-22T09:00:14;8.50;99.90
18131;DHT22;9191;54.324;10.126;2023-02-22T09:02:41;8.60;99.90
18131;DHT22;9191;54.324;10.126;2023-02-22T09:05:08;8.60;99.90
18131;DHT22;9191;54.324;10.126;2023-02-22T09:07:42;8.70;99.90
18131;DHT22;9191;54.324;10.126;2023-02-22T09:10:12;8.70;99.90
18131;DHT22;9191;54.324;10.126;2023-02-22T09:12:40;8.80;99.90
18131;DHT22;9191;54.324;10.126;2023-02-22T09:15:07;8.80;99.90
18131;DHT22;9191;54.324;10.126;2023-02-22T09:17:38;8.90;99.90
18131;DHT22;9191;54.324;10.126;2023-02-22T09:20:07;9.00;99.90
18131;DHT22;9191;54.324;10.126;2023-02-22T09:22:34;9.10;99.90
18131;DHT22;9191;54.324;10.126;2023-02-22T09:25:01;9.20;99.90
18131;DHT22;9191;54.324;10.126;2023-02-22T09:27:28;9.30;99.90
18131;DHT22;9191;54.324;10.126;2023-02-22T09:29:55;9.30;99.90
18131;DHT22;9191;54.324;10.126;2023-02-22T09:32:23;9.30;99.90
18131;DHT22;9191;54.324;10.126;2023-02-22T09:34:54;9.50;99.90
18131;DHT22;9191;54.324;10.126;2023-02-22T09:37:24;9.40;99.90
18131;DHT22;9191;54.324;10.126;2023-02-22T09:39:51;9.50;99.90
18131;DHT22;9191;54.324;10.126;2023-02-22T09:42:24;9.50;99.90
18131;DHT22;9191;54.324;10.126;2023-02-22T09:44:59;9.50;99.90
18131;DHT22;9191;54.324;10.126;2023-02-22T09:47:37;9.60;99.90
18131;DHT22;9191;54.324;10.126;2023-02-22T09:50:08;9.60;99.90
18131;DHT22;9191;54.324;10.126;2023-02-22T09:52:46;9.60;99.90
18131;DHT22;9191;54.324;10.126;2023-02-22T09:55:25;9.60;99.90
18131;DHT22;9191;54.324;10.126;2023-02-22T09:57:55;9.60;99.90
18131;DHT22;9191;54.324;10.126;2023-02-22T10:00:28;9.60;99.90
18131;DHT22;9191;54.324;10.126;2023-02-22T10:03:11;9.60;99.90
18131;DHT22;9191;54.324;10.126;2023-02-22T10:05:46;9.70;99.90
18131;DHT22;9191;54.324;10.126;2023-02-22T10:08:16;9.60;99.90
18131;DHT22;9191;54.324;10.126;2023-02-22T10:10:46;9.70;99.90
18131;DHT22;9191;54.324;10.126;2023-02-22T10:13:24;9.70;99.90
18131;DHT22;9191;54.324;10.126;2023-02-22T10:15:57;9.60;99.90
18131;DHT22;9191;54.324;10.126;2023-02-22T10:24:42;9.90;99.90
18131;DHT22;9191;54.324;10.126;2023-02-22T10:27:16;10.00;99.90
18131;DHT22;9191;54.324;10.126;2023-02-22T10:29:47;9.90;99.90
18131;DHT22;9191;54.324;10.126;2023-02-22T10:32:25;9.90;99.90
18131;DHT22;9191;54.324;10.126;2023-02-22T10:34:53;9.90;99.90
18131;DHT22;9191;54.324;10.126;2023-02-22T10:37:24;9.90;99.90
18131;DHT22;9191;54.324;10.126;2023-02-22T10:39:57;9.90;99.90
18131;DHT22;9191;54.324;10.126;2023-02-22T10:42:26;10.00;99.90
18131;DHT22;9191;54.324;10.126;2023-02-22T10:44:53;10.10;99.90
18131;DHT22;9191;54.324;10.126;2023-02-22T10:47:21;10.20;99.90
18131;DHT22;9191;54.324;10.126;2023-02-22T10:49:50;10.20;99.90
18131;DHT22;9191;54.324;10.126;2023-02-22T10:52:27;10.30;99.90
18131;DHT22;9191;54.324;10.126;2023-02-22T10:54:56;10.10;99.90
18131;DHT22;9191;54.324;10.126;2023-02-22T10:57:28;10.10;99.90
18131;DHT22;9191;54.324;10.126;2023-02-22T10:59:56;10.20;99.90
18131;DHT22;9191;54.324;10.126;2023-02-22T11:02:28;10.30;99.90
18131;DHT22;9191;54.324;10.126;2023-02-22T11:04:57;10.40;99.90
18131;DHT22;9191;54.324;10.126;2023-02-22T11:07:29;10.40;99.90
18131;DHT22;9191;54.324;10.126;2023-02-22T11:10:03;10.50;99.90
18131;DHT22;9191;54.324;10.126;2023-02-22T11:12:32;10.60;99.90
18131;DHT22;9191;54.324;10.126;2023-02-22T11:15:27;10.60;99.90
18131;DHT22;9191;54.324;10.126;2023-02-22T11:17:55;10.70;99.90
18131;DHT22;9191;54.324;10.126;2023-02-22T11:20:27;10.70;99.90
18131;DHT22;9191;54.324;10.126;2023-02-22T11:22:59;10.70;99.90
18131;DHT22;9191;54.324;10.126;2023-02-22T11:25:31;10.60;99.90
18131;DHT22;9191;54.324;10.126;2023-02-22T11:28:07;10.50;99.90
18131;DHT22;9191;54.324;10.126;2023-02-22T11:30:35;10.40;99.90
18131;DHT22;9191;54.324;10.126;2023-02-22T11:33:09;10.40;99.90
18131;DHT22;9191;54.324;10.126;2023-02-22T11:35:48;10.40;99.90
18131;DHT22;9191;54.324;10.126;2023-02-22T11:38:18;10.70;99.90
18131;DHT22;9191;54.324;10.126;2023-02-22T11:41:09;10.90;99.90
18131;DHT22;9191;54.324;10.126;2023-02-22T11:43:43;11.00;99.90
18131;DHT22;9191;54.324;10.126;2023-02-22T11:46:14;11.20;99.90
18131;DHT22;9191;54.324;10.126;2023-02-22T11:48:46;11.10;99.90
18131;DHT22;9191;54.324;10.126;2023-02-22T11:51:32;11.10;99.90
18131;DHT22;9191;54.324;10.126;2023-02-22T11:54:24;11.10;99.90
18131;DHT22;9191;54.324;10.126;2023-02-22T11:57:04;11.00;99.90
18131;DHT22;9191;54.324;10.126;2023-02-22T11:59:37;10.90;99.90
18131;DHT22;9191;54.324;10.126;2023-02-22T12:02:41;11.00;99.90
18131;DHT22;9191;54.324;10.126;2023-02-22T12:05:21;11.00;99.90
18131;DHT22;9191;54.324;10.126;2023-02-22T12:07:57;10.90;99.90
18131;DHT22;9191;54.324;10.126;2023-02-22T12:10:40;10.90;99.90
18131;DHT22;9191;54.324;10.126;2023-02-22T12:13:29;10.90;99.90
18131;DHT22;9191;54.324;10.126;2023-02-22T12:16:04;11.00;99.90
18131;DHT22;9191;54.324;10.126;2023-02-22T12:18:40;11.00;99.90
18131;DHT22;9191;54.324;10.126;2023-02-22T12:21:22;11.10;99.90
18131;DHT22;9191;54.324;10.126;2023-02-22T12:23:54;11.10;99.90
18131;DHT22;9191;54.324;10.126;2023-02-22T12:26:32;11.20;99.90
18131;DHT22;9191;54.324;10.126;2023-02-22T12:29:05;11.10;99.90
18131;DHT22;9191;54.324;10.126;2023-02-22T12:31:41;11.10;99.90
18131;DHT22;9191;54.324;10.126;2023-02-22T12:34:16;10.90;99.90
18131;DHT22;9191;54.324;10.126;2023-02-22T12:36:49;10.90;99.90
18131;DHT22;9191;54.324;10.126;2023-02-22T12:39:31;10.90;99.90
18131;DHT22;9191;54.324;10.126;2023-02-22T12:42:01;10.90;99.90
18131;DHT22;9191;54.324;10.126;2023-02-22T12:44:34;10.90;99.90
18131;DHT22;9191;54.324;10.126;2023-02-22T12:47:03;10.90;99.90
18131;DHT22;9191;54.324;10.126;2023-02-22T12:49:38;10.90;99.90
18131;DHT22;9191;54.324;10.126;2023-02-22T12:52:12;10.90;99.90
18131;DHT22;9191;54.324;10.126;2023-02-22T12:54:46;10.90;99.90
18131;DHT22;9191;54.324;10.126;2023-02-22T12:57:22;10.90;99.90
18131;DHT22;9191;54.324;10.126;2023-02-22T12:59:58;10.90;99.90
18131;DHT22;9191;54.324;10.126;2023-02-22T13:02:31;11.00;99.90
18131;DHT22;9191;54.324;10.126;2023-02-22T13:05:02;11.10;99.90
18131;DHT22;9191;54.324;10.126;2023-02-22T13:07:39;10.90;99.90
18131;DHT22;9191;54.324;10.126;2023-02-22T13:13:14;10.80;99.90
18131;DHT22;9191;54.324;10.126;2023-02-22T13:15:55;10.70;99.90
18131;DHT22;9191;54.324;10.126;2023-02-22T13:18:31;10.70;99.90
18131;DHT22;9191;54.324;10.126;2023-02-22T13:21:02;10.70;99.90
18131;DHT22;9191;54.324;10.126;2023-02-22T13:23:36;10.60;99.90
18131;DHT22;9191;54.324;10.126;2023-02-22T13:26:13;10.70;99.90
18131;DHT22;9191;54.324;10.126;2023-02-22T13:28:45;10.70;99.90
18131;DHT22;9191;54.324;10.126;2023-02-22T13:31:20;10.70;99.90
18131;DHT22;9191;54.324;10.126;2023-02-22T13:33:52;10.70;99.90
18131;DHT22;9191;54.324;10.126;2023-02-22T13:36:35;10.70;99.90
18131;DHT22;9191;54.324;10.126;2023-02-22T13:39:23;10.80;99.90
18131;DHT22;9191;54.324;10.126;2023-02-22T13:42:18;10.80;99.90
18131;DHT22;9191;54.324;10.126;2023-02-22T13:51:31;10.70;99.90
18131;DHT22;9191;54.324;10.126;2023-02-22T13:54:01;10.70;99.90
18131;DHT22;9191;54.324;10.126;2023-02-22T13:56:29;10.80;99.90
18131;DHT22;9191;54.324;10.126;2023-02-22T13:58:58;10.80;99.90
18131;DHT22;9191;54.324;10.126;2023-02-22T14:01:43;10.80;99.90
18131;DHT22;9191;54.324;10.126;2023-02-22T14:09:56;10.90;99.90
18131;DHT22;9191;54.324;10.126;2023-02-22T14:15:15;10.80;99.90
18131;DHT22;9191;54.324;10.126;2023-02-22T14:17:44;10.80;99.90
18131;DHT22;9191;54.324;10.126;2023-02-22T14:20:20;10.80;99.90
18131;DHT22;9191;54.324;10.126;2023-02-22T14:22:55;10.80;99.90
18131;DHT22;9191;54.324;10.126;2023-02-22T14:25:33;10.90;99.90
18131;DHT22;9191;54.324;10.126;2023-02-22T14:28:02;10.70;99.90
18131;DHT22;9191;54.324;10.126;2023-02-22T14:30:31;10.80;99.90
18131;DHT22;9191;54.324;10.126;2023-02-22T14:32:59;10.80;99.90
18131;DHT22;9191;54.324;10.126;2023-02-22T14:35:32;10.80;99.90
18131;DHT22;9191;54.324;10.126;2023-02-22T14:38:03;11.00;99.90
18131;DHT22;9191;54.324;10.126;2023-02-22T14:40:35;10.80;99.90
18131;DHT22;9191;54.324;10.126;2023-02-22T14:43:07;10.80;99.90
18131;DHT22;9191;54.324;10.126;2023-02-22T14:45:42;10.70;99.90
18131;DHT22;9191;54.324;10.126;2023-02-22T14:48:18;10.60;99.90
18131;DHT22;9191;54.324;10.126;2023-02-22T14:50:51;10.60;99.90
18131;DHT22;9191;54.324;10.126;2023-02-22T14:53:23;10.60;99.90
18131;DHT22;9191;54.324;10.126;2023-02-22T14:55:57;10.70;99.90
18131;DHT22;9191;54.324;10.126;2023-02-22T14:58:33;10.60;99.90
18131;DHT22;9191;54.324;10.126;2023-02-22T15:01:21;10.60;99.90
18131;DHT22;9191;54.324;10.126;2023-02-22T15:03:48;10.60;99.90
18131;DHT22;9191;54.324;10.126;2023-02-22T15:06:19;10.50;99.90
18131;DHT22;9191;54.324;10.126;2023-02-22T15:09:03;10.50;99.90
18131;DHT22;9191;54.324;10.126;2023-02-22T15:11:31;10.60;99.90
18131;DHT22;9191;54.324;10.126;2023-02-22T15:14:01;10.50;99.90
18131;DHT22;9191;54.324;10.126;2023-02-22T15:16:30;10.50;99.90
18131;DHT22;9191;54.324;10.126;2023-02-22T15:19:04;10.60;99.90
18131;DHT22;9191;54.324;10.126;2023-02-22T15:21:33;10.50;99.90
18131;DHT22;9191;54.324;10.126;2023-02-22T15:24:02;10.50;99.90
18131;DHT22;9191;54.324;10.126;2023-02-22T15:26:34;10.50;99.90
18131;DHT22;9191;54.324;10.126;2023-02-22T15:29:06;10.50;99.90
18131;DHT22;9191;54.324;10.126;2023-02-22T15:31:36;10.40;99.90
18131;DHT22;9191;54.324;10.126;2023-02-22T15:34:17;10.40;99.90
18131;DHT22;9191;54.324;10.126;2023-02-22T15:36:50;10.30;99.90
18131;DHT22;9191;54.324;10.126;2023-02-22T15:39:20;10.30;99.90
18131;DHT22;9191;54.324;10.126;2023-02-22T15:42:02;10.30;99.90
18131;DHT22;9191;54.324;10.126;2023-02-22T15:44:36;10.30;99.90
18131;DHT22;9191;54.324;10.126;2023-02-22T15:47:05;10.30;99.90
18131;DHT22;9191;54.324;10.126;2023-02-22T15:49:32;10.30;99.90
18131;DHT22;9191;54.324;10.126;2023-02-22T15:52:17;10.30;99.90
18131;DHT22;9191;54.324;10.126;2023-02-22T15:54:47;10.30;99.90
18131;DHT22;9191;54.324;10.126;2023-02-22T15:57:18;10.20;99.90
18131;DHT22;9191;54.324;10.126;2023-02-22T15:59:48;10.30;99.90
18131;DHT22;9191;54.324;10.126;2023-02-22T16:02:32;10.20;99.90
18131;DHT22;9191;54.324;10.126;2023-02-22T16:05:04;10.20;99.90
18131;DHT22;9191;54.324;10.126;2023-02-22T16:07:34;10.10;99.90
18131;DHT22;9191;54.324;10.126;2023-02-22T16:10:20;10.10;99.90
18131;DHT22;9191;54.324;10.126;2023-02-22T16:13:02;10.10;99.90
18131;DHT22;9191;54.324;10.126;2023-02-22T16:15:31;10.10;99.90
18131;DHT22;9191;54.324;10.126;2023-02-22T16:18:15;9.90;99.90
18131;DHT22;9191;54.324;10.126;2023-02-22T16:20:43;9.90;99.90
18131;DHT22;9191;54.324;10.126;2023-02-22T16:23:23;9.80;99.90
18131;DHT22;9191;54.324;10.126;2023-02-22T16:26:17;9.80;99.90
18131;DHT22;9191;54.324;10.126;2023-02-22T16:28:50;9.80;99.90